Schneifelwetter: Wetterstation Hallschlag, 537 m . NN
Wetterdaten: Donnerstag, 02.10.2008
Datum Zeit Temp. A. Temp. 2 Feuchte A. Luftdruck Regen Wind Richtung Richtung Sonnenschein Helligkeit T Regen Taupunkt Windchill
02.10.2008 00:10 7,1 C 7,1 C 92 % 1002 hPa 0,0 l/m 29,9 km/h (5 Bft) W45 260 0 min 0 lux 0,00 min 5,9 C -3,4 C
02.10.2008 00:25 7,1 C 7,1 C 92 % 1003 hPa 0,0 l/m 36,3 km/h (5 Bft) W-SW45 250 0 min 0 lux 0,00 min 5,9 C -4,8 C
02.10.2008 00:40 7,0 C 7,0 C 93 % 1003 hPa 0,0 l/m 25,3 km/h (4 Bft) W-SW67.5 255 0 min 0 lux 0,00 min 5,9 C -2,3 C
02.10.2008 00:55 6,8 C 6,8 C 93 % 1003 hPa 0,0 l/m 27,6 km/h (4 Bft) W-SW45 250 0 min 0 lux 0,00 min 5,7 C -3,2 C
02.10.2008 01:10 6,6 C 6,5 C 93 % 1003 hPa 0,0 l/m 29,6 km/h (5 Bft) W-SW67.5 250 0 min 0 lux 0,00 min 5,6 C -4,0 C
02.10.2008 01:25 6,4 C 6,4 C 94 % 1003 hPa 0,0 l/m 26,3 km/h (4 Bft) W-SW45 245 0 min 0 lux 0,00 min 5,5 C -3,4 C
02.10.2008 01:40 6,4 C 6,3 C 95 % 1003 hPa 0,0 l/m 26,8 km/h (4 Bft) W-SW45 250 0 min 0 lux 0,00 min 5,7 C -3,6 C
02.10.2008 01:55 6,4 C 6,3 C 95 % 1003 hPa 0,0 l/m 34,4 km/h (5 Bft) W-SW22.5 255 0 min 0 lux 0,00 min 5,7 C -5,4 C
02.10.2008 02:10 6,4 C 6,2 C 95 % 1003 hPa 0,0 l/m 36,8 km/h (5 Bft) W-SW45 255 0 min 0 lux 0,00 min 5,7 C -5,9 C
02.10.2008 02:25 6,3 C 6,1 C 95 % 1003 hPa 0,0 l/m 24,9 km/h (4 Bft) SW45 235 0 min 0 lux 0,00 min 5,6 C -3,2 C
02.10.2008 02:40 6,2 C 6,1 C 95 % 1003 hPa 0,0 l/m 32,1 km/h (5 Bft) W-SW22.5 245 0 min 0 lux 0,00 min 5,5 C -5,2 C
02.10.2008 02:55 6,2 C 6,2 C 96 % 1002 hPa 0,0 l/m 28,1 km/h (4 Bft) W-SW45 240 0 min 0 lux 0,00 min 5,6 C -4,2 C
02.10.2008 03:10 6,3 C 6,3 C 96 % 1002 hPa 0,0 l/m 31,7 km/h (5 Bft) W-SW45 240 0 min 0 lux 0,00 min 5,7 C -5,0 C
02.10.2008 03:25 6,3 C 6,2 C 96 % 1002 hPa 0,0 l/m 27,9 km/h (4 Bft) SW67.5 230 0 min 0 lux 0,00 min 5,7 C -4,0 C
02.10.2008 03:40 6,4 C 6,3 C 96 % 1002 hPa 0,0 l/m 33,0 km/h (5 Bft) W-SW45 240 0 min 0 lux 0,00 min 5,8 C -5,1 C
02.10.2008 03:55 6,4 C 6,4 C 97 % 1002 hPa 0,0 l/m 30,8 km/h (5 Bft) W-SW45 250 0 min 0 lux 0,00 min 6,0 C -4,6 C
02.10.2008 04:10 6,5 C 6,5 C 97 % 1002 hPa 0,0 l/m 33,5 km/h (5 Bft) W-SW22.5 255 0 min 0 lux 0,00 min 6,1 C -5,1 C
02.10.2008 04:25 6,5 C 6,5 C 97 % 1002 hPa 0,0 l/m 34,9 km/h (5 Bft) W-SW22.5 255 0 min 0 lux 0,00 min 6,1 C -5,4 C
02.10.2008 04:40 6,5 C 6,4 C 97 % 1002 hPa 0,0 l/m 32,2 km/h (5 Bft) SW45 230 0 min 0 lux 0,00 min 6,1 C -4,8 C
02.10.2008 04:55 6,5 C 6,3 C 97 % 1002 hPa 0,0 l/m 33,4 km/h (5 Bft) W-SW45 240 0 min 0 lux 0,00 min 6,1 C -5,0 C
02.10.2008 05:10 6,4 C 6,4 C 96 % 1002 hPa 0,0 l/m 28,2 km/h (4 Bft) SW45 235 0 min 0 lux 0,00 min 5,8 C -3,9 C
02.10.2008 05:25 6,4 C 6,4 C 96 % 1002 hPa 0,0 l/m 35,1 km/h (5 Bft) W-SW45 250 0 min 0 lux 0,00 min 5,8 C -5,5 C
02.10.2008 05:40 6,4 C 6,3 C 96 % 1002 hPa 0,0 l/m 30,5 km/h (5 Bft) W-SW45 245 0 min 0 lux 0,00 min 5,8 C -4,5 C
02.10.2008 05:55 6,3 C 6,2 C 96 % 1002 hPa 0,0 l/m 28,1 km/h (4 Bft) W-SW45 240 0 min 0 lux 0,00 min 5,7 C -4,1 C
02.10.2008 06:10 6,2 C 6,2 C 95 % 1002 hPa 0,0 l/m 34,1 km/h (5 Bft) W-SW45 250 0 min 0 lux 0,00 min 5,5 C -5,6 C
02.10.2008 06:25 6,1 C 6,1 C 95 % 1002 hPa 0,0 l/m 32,4 km/h (5 Bft) W-SW45 245 0 min 0 lux 0,00 min 5,4 C -5,4 C
02.10.2008 06:40 6,0 C 6,0 C 95 % 1002 hPa 0,0 l/m 36,3 km/h (5 Bft) W-SW45 250 0 min 0 lux 0,00 min 5,3 C -6,4 C
02.10.2008 06:55 5,9 C 5,9 C 95 % 1002 hPa 0,0 l/m 25,0 km/h (4 Bft) SW45 220 0 min 0 lux 0,00 min 5,2 C -3,7 C
02.10.2008 07:10 5,8 C 5,8 C 96 % 1002 hPa 0,0 l/m 30,2 km/h (5 Bft) SW67.5 215 0 min 0 lux 0,00 min 5,2 C -5,3 C
02.10.2008 07:25 5,9 C 5,9 C 96 % 1002 hPa 0,0 l/m 35,9 km/h (5 Bft) W-SW45 250 0 min 283 lux 0,00 min 5,3 C -6,4 C
02.10.2008 07:40 6,0 C 5,9 C 95 % 1002 hPa 0,0 l/m 30,3 km/h (5 Bft) SW67.5 235 0 min 491 lux 0,00 min 5,3 C -5,0 C
02.10.2008 07:55 6,0 C 5,9 C 95 % 1002 hPa 0,0 l/m 33,0 km/h (5 Bft) W-SW22.5 250 0 min 2,05 klux 0,00 min 5,3 C -5,7 C
02.10.2008 08:10 6,0 C 6,0 C 95 % 1002 hPa 0,0 l/m 31,0 km/h (5 Bft) W-SW45 250 0 min 3,30 klux 0,00 min 5,3 C -5,2 C
02.10.2008 08:25 6,2 C 6,1 C 95 % 1002 hPa 0,0 l/m 32,2 km/h (5 Bft) SW45 230 0 min 4,42 klux 0,00 min 5,5 C -5,2 C
02.10.2008 08:40 6,4 C 6,3 C 95 % 1002 hPa 0,0 l/m 30,6 km/h (5 Bft) SW45 235 0 min 10,6 klux 0,00 min 5,7 C -4,6 C
02.10.2008 08:55 6,6 C 6,5 C 94 % 1002 hPa 0,0 l/m 36,2 km/h (5 Bft) W-SW45 255 0 min 18,0 klux 0,00 min 5,7 C -5,5 C
02.10.2008 09:10 7,0 C 6,8 C 93 % 1003 hPa 0,0 l/m 29,8 km/h (5 Bft) W-SW45 245 0 min 30,8 klux 0,00 min 5,9 C -3,5 C
02.10.2008 09:25 6,8 C 6,7 C 93 % 1003 hPa 0,0 l/m 34,1 km/h (5 Bft) SW45 230 0 min 11,2 klux 0,00 min 5,7 C -4,8 C
02.10.2008 09:40 6,4 C 6,3 C 93 % 1003 hPa 0,3 l/m 31,6 km/h (5 Bft) SW67.5 235 0 min 9,7 klux 15,00 min 5,4 C -4,8 C
02.10.2008 09:55 6,6 C 6,5 C 94 % 1003 hPa 0,0 l/m 31,6 km/h (5 Bft) W-SW45 245 0 min 20,1 klux 0,00 min 5,7 C -4,5 C
02.10.2008 10:10 7,3 C 7,5 C 94 % 1003 hPa 0,0 l/m 35,9 km/h (5 Bft) W67.5 260 0 min 52,2 klux 0,00 min 6,4 C -4,4 C
02.10.2008 10:25 8,2 C 9,0 C 91 % 1003 hPa 0,0 l/m 43,6 km/h (6 Bft) W-SW67.5 240 0 min 53,6 klux 0,00 min 6,8 C -4,3 C
02.10.2008 10:40 8,0 C 9,2 C 89 % 1003 hPa 0,0 l/m 46,3 km/h (6 Bft) W-SW67.5 240 0 min 54,2 klux 0,00 min 6,3 C -5,0 C
02.10.2008 10:55 7,7 C 8,8 C 89 % 1003 hPa 0,0 l/m 33,7 km/h (5 Bft) SW67.5 230 0 min 53,9 klux 0,00 min 6,0 C -3,4 C
02.10.2008 11:10 8,2 C 8,6 C 88 % 1003 hPa 0,3 l/m 37,2 km/h (5 Bft) W-SW45 250 0 min 30,3 klux 15,00 min 6,3 C -3,3 C
02.10.2008 11:25 8,3 C 8,2 C 87 % 1003 hPa 0,0 l/m 38,7 km/h (5 Bft) SW45 235 0 min 26,5 klux 0,00 min 6,3 C -3,4 C
02.10.2008 11:40 7,8 C 7,6 C 88 % 1003 hPa 0,0 l/m 36,7 km/h (5 Bft) W-SW22.5 250 0 min 15,0 klux 0,00 min 5,9 C -3,8 C
02.10.2008 11:55 7,7 C 7,7 C 90 % 1003 hPa 0,0 l/m 33,3 km/h (5 Bft) SW45 235 0 min 48,2 klux 0,00 min 6,2 C -3,3 C
02.10.2008 12:10 8,0 C 8,2 C 89 % 1003 hPa 0,0 l/m 38,3 km/h (5 Bft) W-SW45 255 0 min 35,2 klux 0,00 min 6,3 C -3,8 C
02.10.2008 12:25 7,5 C 7,8 C 89 % 1003 hPa 0,0 l/m 39,8 km/h (6 Bft) W-SW45 250 15 min 70,1 klux 0,00 min 5,8 C -4,8 C
02.10.2008 12:40 8,2 C 9,5 C 91 % 1003 hPa 0,0 l/m 34,9 km/h (5 Bft) W45 260 15 min 73,8 klux 0,00 min 6,8 C -2,9 C
02.10.2008 12:55 9,1 C 10,6 C 89 % 1003 hPa 0,0 l/m 35,5 km/h (5 Bft) W-SW22.5 240 15 min 76,8 klux 0,00 min 7,4 C -1,7 C
02.10.2008 13:10 9,1 C 10,0 C 85 % 1003 hPa 0,0 l/m 46,4 km/h (6 Bft) W-SW45 245 0 min 46,3 klux 0,00 min 6,7 C -3,3 C
02.10.2008 13:25 8,8 C 9,0 C 86 % 1003 hPa 0,3 l/m 34,7 km/h (5 Bft) W22.5 260 0 min 22,4 klux 15,00 min 6,6 C -2,0 C
02.10.2008 13:41 8,1 C 8,0 C 89 % 1003 hPa 0,0 l/m 32,0 km/h (5 Bft) W22.5 260 0 min 23,1 klux 0,00 min 6,4 C -2,5 C
02.10.2008 13:56 8,0 C 8,2 C 89 % 1003 hPa 0,0 l/m 27,3 km/h (4 Bft) W-SW67.5 250 0 min 20,5 klux 0,00 min 6,3 C -1,5 C
02.10.2008 14:11 8,9 C 10,1 C 88 % 1003 hPa 0,0 l/m 39,3 km/h (6 Bft) W-SW45 250 15 min 94,9 klux 0,00 min 7,0 C -2,6 C
02.10.2008 14:26 9,7 C 10,7 C 83 % 1003 hPa 0,0 l/m 42,2 km/h (6 Bft) W-SW45 245 15 min 81,6 klux 0,00 min 7,0 C -1,9 C
02.10.2008 14:41 9,5 C 11,2 C 81 % 1003 hPa 0,0 l/m 34,4 km/h (5 Bft) W-SW45 250 15 min 77,4 klux 0,00 min 6,4 C -0,9 C
02.10.2008 14:56 8,1 C 8,9 C 80 % 1003 hPa 0,3 l/m 37,4 km/h (5 Bft) W45 265 0 min 13,0 klux 15,00 min 4,9 C -3,5 C
02.10.2008 15:11 7,1 C 7,5 C 87 % 1003 hPa 1,2 l/m 26,1 km/h (4 Bft) W-SW45 255 0 min 46,0 klux 15,00 min 5,1 C -2,4 C
02.10.2008 15:26 7,2 C 6,9 C 87 % 1003 hPa 0,3 l/m 55,4 km/h (7 Bft) W-SW45 250 0 min 11,3 klux 15,00 min 5,2 C -7,2 C
02.10.2008 15:41 6,9 C 7,1 C 90 % 1003 hPa 0,0 l/m 38,0 km/h (5 Bft) W-SW67.5 245 0 min 51,0 klux 0,00 min 5,4 C -5,4 C
02.10.2008 15:56 7,0 C 8,0 C 90 % 1003 hPa 0,0 l/m 37,6 km/h (5 Bft) SW45 235 0 min 36,5 klux 0,00 min 5,5 C -5,1 C
02.10.2008 16:11 7,2 C 10,1 C 90 % 1003 hPa 0,0 l/m 34,7 km/h (5 Bft) W-SW45 245 15 min 56,5 klux 0,00 min 5,7 C -4,3 C
02.10.2008 16:26 7,3 C 10,1 C 89 % 1003 hPa 0,0 l/m 40,2 km/h (6 Bft) W-SW67.5 240 0 min 51,4 klux 0,00 min 5,6 C -5,1 C
02.10.2008 16:40 7,3 C 10,4 C 89 % 1003 hPa 0,0 l/m 23,9 km/h (4 Bft) W-SW67.5 240 0 min 47,9 klux 0,00 min 5,6 C -1,5 C
02.10.2008 16:55 7,1 C 8,9 C 88 % 1003 hPa 0,0 l/m 26,4 km/h (4 Bft) SW67.5 235 0 min 17,1 klux 0,00 min 5,2 C -2,5 C
02.10.2008 17:10 7,2 C 8,1 C 88 % 1003 hPa 0,0 l/m 36,6 km/h (5 Bft) W-SW45 255 0 min 14,8 klux 0,00 min 5,3 C -4,7 C
02.10.2008 17:25 7,2 C 7,6 C 88 % 1003 hPa 0,3 l/m 36,4 km/h (5 Bft) W-SW45 250 0 min 11,5 klux 15,00 min 5,3 C -4,6 C
02.10.2008 17:40 7,6 C 9,0 C 86 % 1002 hPa 0,0 l/m 38,7 km/h (5 Bft) SW45 235 0 min 39,7 klux 0,00 min 5,4 C -4,5 C
02.10.2008 17:55 7,2 C 9,1 C 85 % 1003 hPa 0,0 l/m 34,9 km/h (5 Bft) W-SW45 250 0 min 30,0 klux 0,00 min 4,9 C -4,3 C
02.10.2008 18:10 6,6 C 8,6 C 86 % 1003 hPa 0,0 l/m 24,3 km/h (4 Bft) SW45 235 0 min 16,5 klux 0,00 min 4,4 C -2,6 C
02.10.2008 18:25 6,1 C 7,3 C 87 % 1003 hPa 0,0 l/m 26,1 km/h (4 Bft) W-SW22.5 250 0 min 11,2 klux 0,00 min 4,1 C -3,8 C
02.10.2008 18:40 5,8 C 6,1 C 88 % 1003 hPa 0,0 l/m 23,2 km/h (4 Bft) W-SW45 240 0 min 6,24 klux 0,00 min 4,0 C -3,3 C
02.10.2008 18:55 5,4 C 5,4 C 89 % 1003 hPa 0,0 l/m 21,5 km/h (4 Bft) W-SW45 245 0 min 2,67 klux 0,00 min 3,7 C -3,2 C
02.10.2008 19:10 4,8 C 4,7 C 90 % 1003 hPa 0,0 l/m 22,0 km/h (4 Bft) SW45 230 0 min 886 lux 0,00 min 3,3 C -4,2 C
02.10.2008 19:25 4,4 C 4,2 C 91 % 1003 hPa 0,0 l/m 16,7 km/h (3 Bft) W-SW22.5 250 0 min 235 lux 0,00 min 3,1 C -2,5 C
02.10.2008 19:40 4,2 C 4,1 C 92 % 1003 hPa 0,0 l/m 18,1 km/h (3 Bft) W-SW45 245 0 min 21 lux 0,00 min 3,0 C -3,4 C
02.10.2008 19:55 4,2 C 3,9 C 93 % 1003 hPa 0,0 l/m 20,9 km/h (4 Bft) SW45 230 0 min 0 lux 0,00 min 3,2 C -4,6 C
02.10.2008 20:10 4,1 C 3,9 C 93 % 1003 hPa 0,0 l/m 15,9 km/h (3 Bft) W-SW22.5 245 0 min 0 lux 0,00 min 3,1 C -2,5 C
02.10.2008 20:25 4,3 C 4,1 C 94 % 1003 hPa 0,0 l/m 17,3 km/h (3 Bft) SW22.5 230 0 min 0 lux 0,00 min 3,4 C -2,9 C
02.10.2008 20:40 4,3 C 3,9 C 94 % 1003 hPa 0,0 l/m 18,1 km/h (3 Bft) SW45 230 0 min 0 lux 0,00 min 3,4 C -3,3 C
02.10.2008 20:55 4,0 C 3,5 C 93 % 1003 hPa 0,0 l/m 14,6 km/h (3 Bft) W-SW67.5 240 0 min 0 lux 0,00 min 3,0 C -1,9 C
02.10.2008 21:10 3,5 C 3,0 C 93 % 1004 hPa 0,0 l/m 10,8 km/h (2 Bft) W-SW 245 0 min 0 lux 0,00 min 2,5 C -0,2 C
02.10.2008 21:25 3,4 C 2,9 C 94 % 1004 hPa 0,0 l/m 7,6 km/h (2 Bft) W-SW 240 0 min 0 lux 0,00 min 2,5 C 2,3 C
02.10.2008 21:40 3,3 C 2,6 C 95 % 1004 hPa 0,0 l/m 7,0 km/h (2 Bft) W-SW 240 0 min 0 lux 0,00 min 2,6 C 2,7 C
02.10.2008 21:55 3,0 C 2,4 C 94 % 1004 hPa 0,0 l/m 2,5 km/h (1 Bft) W-SW 240 0 min 0 lux 0,00 min 2,1 C 3,0 C
02.10.2008 22:10 3,3 C 3,1 C 96 % 1004 hPa 0,0 l/m 13,7 km/h (3 Bft) W-SW22.5 240 0 min 0 lux 0,00 min 2,7 C -2,3 C
02.10.2008 22:25 3,8 C 3,5 C 96 % 1004 hPa 0,0 l/m 15,6 km/h (3 Bft) SW22.5 225 0 min 0 lux 0,00 min 3,2 C -2,7 C
02.10.2008 22:40 4,1 C 3,8 C 96 % 1004 hPa 0,0 l/m 20,5 km/h (4 Bft) W-SW67.5 245 0 min 0 lux 0,00 min 3,5 C -4,5 C
02.10.2008 22:55 4,2 C 3,8 C 96 % 1004 hPa 0,0 l/m 16,1 km/h (3 Bft) SW45 225 0 min 0 lux 0,00 min 3,6 C -2,5 C
02.10.2008 23:10 4,1 C 3,9 C 96 % 1004 hPa 0,0 l/m 14,0 km/h (3 Bft) SW45 225 0 min 0 lux 0,00 min 3,5 C -1,5 C
02.10.2008 23:25 4,1 C 3,9 C 96 % 1004 hPa 0,0 l/m 16,6 km/h (3 Bft) W-SW22.5 245 0 min 0 lux 0,00 min 3,5 C -2,8 C
02.10.2008 23:40 4,1 C 3,9 C 96 % 1004 hPa 0,0 l/m 12,2 km/h (2 Bft) W-SW 245 0 min 0 lux 0,00 min 3,5 C -0,4 C
02.10.2008 23:55 4,2 C 4,1 C 96 % 1004 hPa 0,0 l/m 12,8 km/h (3 Bft) S-SW22.5 205 0 min 0 lux 0,00 min 3,6 C -0,7 C
_ Min-Zeit 21:55 21:55 14:56 00:10 - 21:55 - - - - - 21:55 15:26
Minimum _ 3,0 C 2,4 C 80 % 1002 hPa - 2,5 km/h (1 Bft) - - - - - 2,1 C -7,2 C
_ Max-Zeit 14:26 14:41 03:55 21:10 15:11 15:26 - - 12:25 14:11 09:40 12:55 21:55
Maximum _ 9,7 C 11,2 C 97 % 1004 hPa 1,2 l/m 55,4 km/h
W-SW (7 Bft)
- - 15 min 94,9 klux 15,00 min 7,4 C 3,0 C
Durchschnitt _ 6,4 C 6,6 C 92 % 1003 hPa #3,0 l/m 29,3 km/h (5 Bft) W-SW - #1:45 h 16,0 klux #1:45 h 5,2 C -3,6 C